createdAt,value
2023-05-18T05:02:09.708Z,9.44
2023-05-18T05:07:11.421Z,9.58
2023-05-18T05:12:20.150Z,9.69
2023-05-18T05:17:22.740Z,9.81
2023-05-18T05:22:24.335Z,9.90
2023-05-18T05:27:26.783Z,10.02
2023-05-18T05:32:28.509Z,10.08
2023-05-18T05:37:30.147Z,10.18
2023-05-18T05:42:32.192Z,10.30
2023-05-18T05:47:33.897Z,10.43
2023-05-18T05:52:35.515Z,10.56
2023-05-18T05:57:42.452Z,10.67
2023-05-18T06:02:44.266Z,10.74
2023-05-18T06:07:46.131Z,10.85
2023-05-18T06:12:47.855Z,10.95
2023-05-18T06:17:50.008Z,11.10
2023-05-18T06:22:51.905Z,11.24
2023-05-18T06:28:02.052Z,11.38
2023-05-18T06:33:26.434Z,11.51
2023-05-18T06:38:28.006Z,11.60
2023-05-18T06:43:29.683Z,11.70
2023-05-18T06:48:38.628Z,11.78
2023-05-18T06:53:40.250Z,11.88
2023-05-18T06:58:42.886Z,11.96
2023-05-18T07:03:44.964Z,12.08
2023-05-18T07:08:47.722Z,12.22
2023-05-18T07:13:49.104Z,12.38
2023-05-18T07:18:50.776Z,12.50
2023-05-18T07:23:52.998Z,12.59
2023-05-18T07:28:55.227Z,12.75
2023-05-18T07:33:56.732Z,12.85
2023-05-18T07:38:59.018Z,12.94
2023-05-18T07:44:00.657Z,13.03
2023-05-18T07:49:02.185Z,13.13
2023-05-18T07:54:05.106Z,13.32
2023-05-18T07:59:07.252Z,13.50
2023-05-18T08:04:08.969Z,13.20
2023-05-18T08:09:10.620Z,12.62
2023-05-18T08:14:12.149Z,12.50
2023-05-18T08:19:13.810Z,12.74
2023-05-18T08:24:15.407Z,13.09
2023-05-18T08:29:17.083Z,13.35
2023-05-18T08:34:18.631Z,13.46
2023-05-18T08:39:21.289Z,13.46
2023-05-18T08:44:25.783Z,13.49
2023-05-18T08:49:27.904Z,13.60
2023-05-18T08:54:30.742Z,13.78
2023-05-18T08:59:36.467Z,14.06
2023-05-18T09:04:38.429Z,14.40
2023-05-18T09:09:40.818Z,14.72
2023-05-18T09:14:43.057Z,15.05
2023-05-18T09:19:44.570Z,15.27
2023-05-18T09:24:46.430Z,15.57
2023-05-18T09:29:58.338Z,15.65
2023-05-18T09:35:04.902Z,15.65
2023-05-18T09:40:07.873Z,15.77
2023-05-18T09:45:17.389Z,15.86
2023-05-18T09:50:20.739Z,15.92
2023-05-18T09:55:22.347Z,16.08
2023-05-18T10:00:25.917Z,16.09
2023-05-18T10:05:33.234Z,16.28
2023-05-18T10:10:38.947Z,16.50
2023-05-18T10:15:56.334Z,16.65
2023-05-18T10:21:02.998Z,16.88
2023-05-18T10:26:07.087Z,17.02
2023-05-18T10:31:09.228Z,17.13
2023-05-18T10:36:11.432Z,17.34
2023-05-18T10:41:14.016Z,17.53
2023-05-18T10:46:16.664Z,17.61
2023-05-18T10:51:20.136Z,17.78
2023-05-18T10:56:23.687Z,17.92
2023-05-18T11:01:25.455Z,17.91
2023-05-18T11:06:27.314Z,17.75
2023-05-18T11:11:29.958Z,17.74
2023-05-18T11:16:36.410Z,17.70
2023-05-18T11:21:41.327Z,17.65
2023-05-18T11:26:44.933Z,17.70
2023-05-18T11:31:48.067Z,17.85
2023-05-18T11:36:56.254Z,17.97
2023-05-18T11:42:02.633Z,18.06
2023-05-18T11:47:05.454Z,18.27
2023-05-18T11:52:23.665Z,18.55
2023-05-18T11:57:34.368Z,18.73
2023-05-18T12:02:36.134Z,18.78
2023-05-18T12:07:39.465Z,18.76
2023-05-18T12:12:41.666Z,18.80
2023-05-18T12:17:43.136Z,18.73
2023-05-18T12:22:50.135Z,18.65
2023-05-18T12:27:53.374Z,18.79
2023-05-18T12:32:56.801Z,18.96
2023-05-18T12:38:02.651Z,18.99
2023-05-18T12:43:04.680Z,18.90
2023-05-18T12:48:11.319Z,18.96
2023-05-18T12:53:13.504Z,18.94
2023-05-18T12:58:19.517Z,18.95
2023-05-18T13:03:24.525Z,19.20
2023-05-18T13:08:26.218Z,19.20
2023-05-18T13:13:27.824Z,19.65
2023-05-18T13:18:29.351Z,20.72
2023-05-18T13:23:31.008Z,21.15
2023-05-18T13:28:32.552Z,20.85
2023-05-18T13:33:34.127Z,20.79
2023-05-18T13:38:37.212Z,20.74
2023-05-18T13:43:38.806Z,20.86
2023-05-18T13:48:40.303Z,20.70
2023-05-18T13:53:41.813Z,20.22
2023-05-18T13:58:44.574Z,20.12
2023-05-18T14:03:46.073Z,20.00
2023-05-18T14:08:47.572Z,19.98
2023-05-18T14:13:50.288Z,19.84
2023-05-18T14:18:51.842Z,19.64
2023-05-18T14:23:53.374Z,19.87
2023-05-18T14:28:55.062Z,20.18
2023-05-18T14:33:56.625Z,20.59
2023-05-18T14:38:58.133Z,20.57
2023-05-18T14:43:59.679Z,20.38
2023-05-18T14:49:01.222Z,20.18
2023-05-18T14:54:02.758Z,19.91
2023-05-18T14:59:04.283Z,19.77
2023-05-18T15:04:05.798Z,19.86
2023-05-18T15:09:08.230Z,20.08
2023-05-18T15:14:09.912Z,19.90
2023-05-18T15:19:11.535Z,19.68
2023-05-18T15:24:13.123Z,19.58
2023-05-18T15:29:14.619Z,19.59
2023-05-18T15:34:16.262Z,19.54
2023-05-18T15:39:17.791Z,19.38
2023-05-18T15:44:19.322Z,19.47
2023-05-18T15:49:21.666Z,19.53
2023-05-18T15:54:23.143Z,19.49
2023-05-18T15:59:24.700Z,19.33
2023-05-18T16:04:26.211Z,19.13
2023-05-18T16:09:27.987Z,18.90
2023-05-18T16:14:29.545Z,18.79
2023-05-18T16:19:33.119Z,18.67
2023-05-18T16:24:35.065Z,18.64
2023-05-18T16:29:36.591Z,18.67
2023-05-18T16:34:38.114Z,18.65
2023-05-18T16:39:39.596Z,18.81
2023-05-18T16:44:41.104Z,18.83
2023-05-18T16:49:45.206Z,18.80
2023-05-18T16:54:46.929Z,18.87
2023-05-18T16:59:48.428Z,18.89
2023-05-18T17:04:50.382Z,19.09
2023-05-18T17:09:51.871Z,19.13
2023-05-18T17:14:53.327Z,19.09
2023-05-18T17:19:55.041Z,18.97
2023-05-18T17:24:56.539Z,18.79
2023-05-18T17:29:58.087Z,18.63
2023-05-18T17:34:59.606Z,18.43
2023-05-18T17:40:01.073Z,18.22
2023-05-18T17:45:02.845Z,18.03
2023-05-18T17:50:04.766Z,17.86
2023-05-18T17:55:06.900Z,17.70
2023-05-18T18:00:10.188Z,17.54
2023-05-18T18:05:13.012Z,17.37
2023-05-18T18:10:15.312Z,17.24
2023-05-18T18:15:17.203Z,17.09
2023-05-18T18:20:18.778Z,16.98
2023-05-18T18:25:20.217Z,16.89
2023-05-18T18:30:21.994Z,16.78
2023-05-18T18:35:23.557Z,16.68
2023-05-18T18:40:25.165Z,16.60
2023-05-18T18:45:28.952Z,16.51
2023-05-18T18:50:31.752Z,16.43
2023-05-18T18:55:33.733Z,16.32
2023-05-18T19:00:35.578Z,16.23
2023-05-18T19:05:37.318Z,16.15
2023-05-18T19:10:38.806Z,16.07
2023-05-18T19:15:40.325Z,16.00
2023-05-18T19:20:41.783Z,15.93
2023-05-18T19:25:43.480Z,15.87
2023-05-18T19:30:44.961Z,15.84
2023-05-18T19:35:46.542Z,15.80
2023-05-18T19:40:48.004Z,15.75
2023-05-18T19:45:50.078Z,15.68
2023-05-18T19:50:51.609Z,15.64
2023-05-18T19:55:53.117Z,15.58
2023-05-18T20:00:54.821Z,15.52
2023-05-18T20:05:56.503Z,15.44
2023-05-18T20:10:58.620Z,15.36
2023-05-18T20:16:02.717Z,15.29
2023-05-18T20:21:04.236Z,15.27
2023-05-18T20:26:06.586Z,15.21
2023-05-18T20:31:08.086Z,15.17
2023-05-18T20:36:10.395Z,15.14
2023-05-18T20:41:11.889Z,15.09
2023-05-18T20:46:16.995Z,15.01
2023-05-18T20:51:20.433Z,14.91
2023-05-18T20:56:24.031Z,14.81
2023-05-18T21:01:28.681Z,14.73
2023-05-18T21:06:30.831Z,14.70
2023-05-18T21:11:32.687Z,14.70
2023-05-18T21:16:34.274Z,14.74
2023-05-18T21:21:35.838Z,14.78
2023-05-18T21:26:37.334Z,14.79
2023-05-18T21:31:38.916Z,14.78
2023-05-18T21:36:41.503Z,14.77
2023-05-18T21:41:44.334Z,14.76
2023-05-18T21:46:45.953Z,14.74
2023-05-18T21:51:47.468Z,14.72
2023-05-18T21:56:48.936Z,14.69
